createdAt,value
2019-05-23T00:02:12.096Z,5.70
2019-05-23T00:05:01.567Z,6.27
2019-05-23T00:07:50.788Z,5.87
2019-05-23T00:10:40.683Z,6.03
2019-05-23T00:13:51.276Z,6.60
2019-05-23T00:16:23.369Z,5.83
2019-05-23T00:18:53.693Z,5.80
2019-05-23T00:21:25.111Z,6.27
2019-05-23T00:23:59.075Z,6.47
2019-05-23T00:26:30.083Z,6.03
2019-05-23T00:29:09.983Z,6.57
2019-05-23T00:31:38.357Z,6.47
2019-05-23T00:34:10.325Z,5.57
2019-05-23T00:36:42.935Z,5.07
2019-05-23T00:39:15.577Z,5.90
2019-05-23T00:41:46.907Z,4.90
2019-05-23T00:44:23.514Z,4.70
2019-05-23T00:46:54.653Z,5.20
2019-05-23T00:49:27.319Z,5.43
2019-05-23T00:51:57.402Z,5.33
2019-05-23T00:54:28.256Z,5.50
2019-05-23T00:57:02.366Z,4.80
2019-05-23T00:59:35.644Z,5.10
2019-05-23T01:02:12.381Z,5.67
2019-05-23T01:04:46.119Z,6.07
2019-05-23T01:07:17.252Z,5.77
2019-05-23T01:09:48.083Z,7.10
2019-05-23T01:12:18.246Z,6.20
2019-05-23T01:14:48.414Z,6.43
2019-05-23T01:17:20.740Z,6.47
2019-05-23T01:19:52.837Z,5.90
2019-05-23T01:22:23.876Z,6.37
2019-05-23T01:24:55.574Z,6.07
2019-05-23T01:27:25.824Z,6.03
2019-05-23T01:29:58.298Z,6.00
2019-05-23T01:32:31.476Z,5.73
2019-05-23T01:35:02.069Z,5.97
2019-05-23T01:37:32.454Z,6.00
2019-05-23T01:40:07.761Z,6.27
2019-05-23T01:42:44.536Z,5.70
2019-05-23T01:45:17.696Z,6.03
2019-05-23T01:47:49.307Z,5.60
2019-05-23T01:50:23.494Z,5.60
2019-05-23T01:52:54.198Z,6.47
2019-05-23T01:55:24.544Z,6.60
2019-05-23T01:57:55.835Z,7.63
2019-05-23T02:00:30.756Z,7.47
2019-05-23T02:03:01.104Z,7.43
2019-05-23T02:05:33.171Z,6.77
2019-05-23T02:08:04.092Z,5.60
2019-05-23T02:10:34.394Z,5.57
2019-05-23T02:13:04.840Z,4.73
2019-05-23T02:15:34.921Z,4.60
2019-05-23T02:18:06.282Z,4.50
2019-05-23T02:20:37.134Z,4.20
2019-05-23T02:23:07.875Z,5.77
2019-05-23T02:25:39.692Z,5.00
2019-05-23T02:28:10.143Z,5.67
2019-05-23T02:30:40.801Z,5.23
2019-05-23T02:33:12.519Z,5.67
2019-05-23T02:35:47.702Z,5.37
2019-05-23T02:38:27.158Z,5.30
2019-05-23T02:41:01.815Z,4.93
2019-05-23T02:43:35.380Z,5.60
2019-05-23T02:46:09.564Z,5.73
2019-05-23T02:48:43.611Z,5.53
2019-05-23T02:51:28.394Z,5.53
2019-05-23T02:54:01.898Z,5.13
2019-05-23T02:56:38.737Z,5.67
2019-05-23T02:59:39.278Z,5.00
2019-05-23T03:02:37.950Z,5.20
2019-05-23T03:05:14.363Z,5.13
2019-05-23T03:07:45.334Z,5.47
2019-05-23T03:10:18.656Z,5.17
2019-05-23T03:12:49.574Z,5.27
2019-05-23T03:15:25.043Z,6.00
2019-05-23T03:18:00.543Z,5.47
2019-05-23T03:20:30.879Z,5.57
2019-05-23T03:23:04.190Z,5.73
2019-05-23T03:25:38.271Z,6.10
2019-05-23T03:28:14.059Z,6.37
2019-05-23T03:31:26.551Z,6.57
2019-05-23T03:33:39.296Z,6.60
2019-05-23T03:36:10.145Z,7.47
2019-05-23T03:38:41.130Z,10.70
2019-05-23T03:41:15.873Z,10.93
2019-05-23T03:43:48.697Z,9.67
2019-05-23T03:46:23.827Z,8.50
2019-05-23T03:48:54.474Z,8.93
2019-05-23T03:51:25.306Z,10.70
2019-05-23T03:53:56.967Z,9.73
2019-05-23T03:56:28.572Z,10.67
2019-05-23T03:59:00.622Z,8.70
2019-05-23T04:01:47.209Z,7.50
2019-05-23T04:04:07.459Z,7.50
2019-05-23T04:06:38.192Z,7.80
2019-05-23T04:09:09.956Z,7.23
2019-05-23T04:11:40.143Z,6.90
2019-05-23T04:14:13.603Z,7.83
2019-05-23T04:16:43.681Z,7.67
2019-05-23T04:19:13.673Z,7.40
2019-05-23T04:21:48.362Z,8.57
2019-05-23T04:24:21.183Z,7.40
2019-05-23T04:26:58.834Z,7.30
2019-05-23T04:29:29.301Z,7.17
2019-05-23T04:32:07.776Z,7.17
2019-05-23T04:34:33.991Z,7.07
2019-05-23T04:37:04.218Z,8.00
2019-05-23T04:39:34.698Z,7.50
2019-05-23T04:42:05.498Z,8.03
2019-05-23T04:44:43.818Z,7.80
2019-05-23T04:47:10.241Z,8.47
2019-05-23T04:49:40.617Z,7.97
2019-05-23T04:52:11.433Z,8.30
2019-05-23T04:54:42.185Z,9.03
2019-05-23T04:57:14.541Z,8.57
2019-05-23T04:59:44.792Z,7.33
2019-05-23T05:02:25.727Z,9.00
2019-05-23T05:04:48.590Z,8.17
2019-05-23T05:07:19.042Z,9.63
2019-05-23T05:09:50.951Z,9.13
2019-05-23T05:12:21.161Z,9.43
2019-05-23T05:14:52.016Z,9.87
2019-05-23T05:17:22.353Z,10.57
2019-05-23T05:19:52.709Z,9.87
2019-05-23T05:22:22.963Z,9.90
2019-05-23T05:24:56.266Z,10.73
2019-05-23T05:27:26.564Z,12.10
2019-05-23T05:29:56.767Z,10.63
2019-05-23T05:32:43.314Z,12.30
2019-05-23T05:34:59.612Z,12.23
2019-05-23T05:37:33.105Z,13.87
2019-05-23T05:40:04.620Z,12.53
2019-05-23T05:42:38.110Z,14.67
2019-05-23T05:45:10.435Z,14.50
2019-05-23T05:47:41.024Z,14.07
2019-05-23T05:50:12.978Z,13.57
2019-05-23T05:52:43.410Z,14.33
2019-05-23T05:55:13.837Z,14.80
2019-05-23T05:57:44.198Z,15.27
2019-05-23T06:00:21.346Z,15.77
2019-05-23T06:03:03.613Z,15.97
2019-05-23T06:05:34.311Z,16.33
2019-05-23T06:08:06.385Z,17.83
2019-05-23T06:10:36.697Z,17.13
2019-05-23T06:13:06.711Z,17.87
2019-05-23T06:15:36.832Z,18.13
2019-05-23T06:18:07.366Z,17.30
2019-05-23T06:20:43.159Z,16.93
2019-05-23T06:23:13.723Z,16.00
2019-05-23T06:25:43.758Z,17.03
2019-05-23T06:28:15.979Z,15.80
2019-05-23T06:30:46.459Z,15.23
2019-05-23T06:33:23.267Z,15.87
2019-05-23T06:35:51.580Z,15.43
2019-05-23T06:38:21.312Z,15.07
2019-05-23T06:40:51.882Z,14.50
2019-05-23T06:43:22.623Z,12.93
2019-05-23T06:45:53.267Z,13.63
2019-05-23T06:48:24.322Z,13.70
2019-05-23T06:50:54.404Z,11.17
2019-05-23T06:53:24.610Z,11.40
2019-05-23T06:55:54.685Z,11.50
2019-05-23T06:58:26.305Z,11.00
2019-05-23T07:00:57.485Z,10.90
2019-05-23T07:03:41.846Z,9.97
2019-05-23T07:06:00.621Z,10.03
2019-05-23T07:08:33.605Z,10.33
2019-05-23T07:11:03.789Z,9.33
2019-05-23T07:13:35.143Z,9.30
2019-05-23T07:16:05.913Z,9.40
2019-05-23T07:18:36.019Z,9.13
2019-05-23T07:21:07.686Z,9.30
2019-05-23T07:23:38.062Z,8.43
2019-05-23T07:26:08.701Z,6.93
2019-05-23T07:28:38.810Z,7.07
2019-05-23T07:31:08.937Z,7.47
2019-05-23T07:33:39.097Z,7.20
2019-05-23T07:36:09.329Z,6.30
2019-05-23T07:38:39.466Z,5.80
2019-05-23T07:41:10.093Z,5.30
2019-05-23T07:43:40.620Z,5.97
2019-05-23T07:46:10.641Z,5.03
2019-05-23T07:48:41.295Z,5.00
2019-05-23T07:51:11.427Z,3.52
2019-05-23T07:53:44.233Z,3.57
2019-05-23T07:56:16.171Z,4.20
2019-05-23T07:58:46.360Z,4.00
2019-05-23T08:01:18.137Z,4.90
2019-05-23T08:03:51.867Z,4.47
2019-05-23T08:06:22.889Z,3.67
2019-05-23T08:08:53.337Z,3.40
2019-05-23T08:11:23.805Z,3.20
2019-05-23T08:13:54.842Z,3.00
2019-05-23T08:16:24.833Z,2.83
2019-05-23T08:18:55.429Z,2.67
2019-05-23T08:21:25.670Z,3.62
2019-05-23T08:23:55.832Z,2.33
2019-05-23T08:26:27.537Z,2.45
2019-05-23T08:29:24.250Z,2.55
2019-05-23T08:31:30.500Z,2.80
2019-05-23T08:34:01.261Z,1.98
2019-05-23T08:36:31.747Z,2.15
2019-05-23T08:39:03.675Z,2.27
2019-05-23T08:41:34.894Z,1.57
2019-05-23T08:44:06.800Z,1.67
2019-05-23T08:46:37.602Z,1.60
2019-05-23T08:49:08.992Z,1.55
2019-05-23T08:51:39.216Z,1.00
2019-05-23T08:54:09.252Z,1.27
2019-05-23T08:56:39.755Z,1.02
2019-05-23T08:59:10.808Z,1.40
2019-05-23T09:01:40.821Z,1.42
2019-05-23T09:04:11.100Z,1.00
2019-05-23T09:06:42.448Z,0.90
2019-05-23T09:09:28.434Z,1.20
2019-05-23T09:11:45.066Z,0.90
2019-05-23T09:14:15.383Z,1.20
2019-05-23T09:16:45.731Z,1.20
2019-05-23T09:19:16.145Z,1.25
2019-05-23T09:21:46.508Z,1.30
2019-05-23T09:24:16.567Z,0.90
2019-05-23T09:26:46.854Z,0.80
2019-05-23T09:29:18.196Z,0.80
2019-05-23T09:31:48.833Z,0.80
2019-05-23T09:34:19.069Z,0.95
2019-05-23T09:36:49.089Z,1.02
2019-05-23T09:39:20.959Z,1.10
2019-05-23T09:41:53.960Z,1.10
2019-05-23T09:44:23.951Z,0.80
2019-05-23T09:46:53.970Z,0.68
2019-05-23T09:49:24.596Z,0.70
2019-05-23T09:51:59.326Z,0.60
2019-05-23T09:54:26.936Z,0.70
2019-05-23T09:56:57.559Z,0.93
2019-05-23T09:59:27.757Z,0.80
2019-05-23T10:01:59.315Z,0.70
2019-05-23T10:04:29.253Z,0.60
2019-05-23T10:06:59.341Z,0.98
2019-05-23T10:09:29.624Z,0.80
2019-05-23T10:11:59.643Z,0.70
2019-05-23T10:14:37.066Z,0.80
2019-05-23T10:17:07.193Z,0.90
2019-05-23T10:19:37.667Z,1.00
2019-05-23T10:22:08.393Z,0.80
2019-05-23T10:24:38.486Z,0.80
2019-05-23T10:27:13.679Z,0.70
2019-05-23T10:29:43.757Z,0.80
2019-05-23T10:32:14.282Z,1.00
2019-05-23T10:34:44.739Z,0.70
2019-05-23T10:37:16.634Z,0.68
2019-05-23T10:39:49.857Z,1.30
2019-05-23T10:42:21.586Z,1.65
2019-05-23T10:44:51.836Z,1.90
2019-05-23T10:47:21.906Z,1.80
2019-05-23T10:49:52.086Z,1.40
2019-05-23T10:52:22.223Z,1.80
2019-05-23T10:54:52.386Z,2.98
2019-05-23T10:57:23.051Z,1.55
2019-05-23T10:59:53.212Z,1.62
2019-05-23T11:02:26.866Z,1.50
2019-05-23T11:04:55.681Z,1.85
2019-05-23T11:07:25.687Z,1.75
2019-05-23T11:09:55.850Z,1.70
2019-05-23T11:12:26.233Z,2.00
2019-05-23T11:14:56.468Z,2.10
2019-05-23T11:17:26.468Z,1.77
2019-05-23T11:19:56.536Z,2.15
2019-05-23T11:22:26.990Z,1.50
2019-05-23T11:24:59.489Z,1.30
2019-05-23T11:27:29.968Z,1.75
2019-05-23T11:30:00.047Z,1.70
2019-05-23T11:32:30.477Z,1.92
2019-05-23T11:35:00.766Z,1.67
2019-05-23T11:37:30.769Z,1.37
2019-05-23T11:40:00.845Z,1.65
2019-05-23T11:42:30.844Z,1.80
2019-05-23T11:45:02.073Z,1.80
2019-05-23T11:47:32.435Z,1.30
2019-05-23T11:50:05.127Z,1.25
2019-05-23T11:52:35.554Z,1.37
2019-05-23T11:55:09.114Z,1.05
2019-05-23T11:57:39.388Z,1.37
2019-05-23T12:00:12.078Z,1.00
2019-05-23T12:02:43.962Z,1.70
2019-05-23T12:05:18.310Z,1.82
2019-05-23T12:07:48.571Z,1.62
2019-05-23T12:10:19.060Z,2.15
2019-05-23T12:12:49.154Z,1.52
2019-05-23T12:15:24.031Z,1.75
2019-05-23T12:17:54.846Z,1.67
2019-05-23T12:20:25.325Z,1.40
2019-05-23T12:22:55.451Z,1.50
2019-05-23T12:25:27.181Z,1.37
2019-05-23T12:27:57.460Z,1.00
2019-05-23T12:30:27.924Z,1.50
2019-05-23T12:32:57.938Z,1.65
2019-05-23T12:35:28.018Z,2.02
2019-05-23T12:38:02.443Z,2.33
2019-05-23T12:40:29.798Z,2.02
2019-05-23T12:42:59.914Z,1.90
2019-05-23T12:45:29.967Z,2.00
2019-05-23T12:48:07.491Z,1.92
2019-05-23T12:50:39.220Z,2.22
2019-05-23T12:53:11.094Z,2.17
2019-05-23T12:55:42.842Z,2.17
2019-05-23T12:58:12.838Z,1.90
2019-05-23T13:00:45.141Z,1.50
2019-05-23T13:03:15.644Z,1.98
2019-05-23T13:05:46.165Z,1.67
2019-05-23T13:08:19.216Z,1.12
2019-05-23T13:10:49.321Z,1.95
2019-05-23T13:13:19.681Z,1.60
2019-05-23T13:15:49.819Z,1.82
2019-05-23T13:18:20.178Z,1.47
2019-05-23T13:20:50.324Z,1.25
2019-05-23T13:23:21.566Z,1.25
2019-05-23T13:25:52.755Z,1.62
2019-05-23T13:28:23.157Z,1.10
2019-05-23T13:30:53.470Z,1.12
2019-05-23T13:33:26.639Z,1.17
2019-05-23T13:35:56.998Z,1.00
2019-05-23T13:38:27.633Z,0.90
2019-05-23T13:40:57.723Z,1.52
2019-05-23T13:43:28.160Z,0.90
2019-05-23T13:45:58.474Z,1.00
2019-05-23T13:48:29.541Z,1.52
2019-05-23T13:50:59.735Z,0.82
2019-05-23T13:53:30.109Z,1.40
2019-05-23T13:56:03.506Z,1.47
2019-05-23T13:58:33.543Z,1.10
2019-05-23T14:01:08.834Z,1.87
2019-05-23T14:03:35.543Z,1.12
2019-05-23T14:06:07.378Z,0.82
2019-05-23T14:08:37.463Z,0.90
2019-05-23T14:11:07.912Z,1.00
2019-05-23T14:13:38.023Z,0.85
2019-05-23T14:16:09.362Z,0.80
2019-05-23T14:18:40.802Z,0.93
2019-05-23T14:21:10.769Z,0.90
2019-05-23T14:23:40.923Z,1.87
2019-05-23T14:26:11.429Z,1.00
2019-05-23T14:28:41.691Z,0.95
2019-05-23T14:31:15.907Z,1.05
2019-05-23T14:33:50.698Z,1.00
2019-05-23T14:36:34.089Z,1.00
2019-05-23T14:39:09.126Z,0.80
2019-05-23T14:41:46.540Z,1.02
2019-05-23T14:44:16.695Z,0.90
2019-05-23T14:47:04.986Z,1.02
2019-05-23T14:49:43.248Z,1.30
2019-05-23T14:52:30.383Z,1.05
2019-05-23T14:55:02.303Z,1.10
2019-05-23T14:57:33.400Z,0.72
2019-05-23T15:00:05.340Z,0.93
2019-05-23T15:02:36.293Z,0.90
2019-05-23T15:05:09.882Z,0.60
2019-05-23T15:07:39.954Z,0.65
2019-05-23T15:10:10.383Z,0.80
2019-05-23T15:12:41.518Z,1.35
2019-05-23T15:15:11.977Z,0.72
2019-05-23T15:17:41.972Z,0.80
2019-05-23T15:20:12.736Z,1.00
2019-05-23T15:22:42.767Z,0.75
2019-05-23T15:25:16.320Z,0.72
2019-05-23T15:27:46.540Z,1.00
2019-05-23T15:30:17.467Z,0.68
2019-05-23T15:32:47.616Z,0.80
2019-05-23T15:35:17.877Z,1.10
2019-05-23T15:37:47.915Z,0.75
2019-05-23T15:40:18.741Z,1.00
2019-05-23T15:42:51.418Z,1.45
2019-05-23T15:45:21.424Z,0.80
2019-05-23T15:47:51.984Z,0.80
2019-05-23T15:50:24.575Z,1.00
2019-05-23T15:53:08.113Z,0.80
2019-05-23T15:55:42.853Z,0.88
2019-05-23T15:58:16.386Z,0.70
2019-05-23T16:01:03.962Z,0.98
2019-05-23T16:03:44.580Z,1.07
2019-05-23T16:06:19.217Z,0.82
2019-05-23T16:08:49.477Z,0.90
2019-05-23T16:11:19.646Z,0.98
2019-05-23T16:13:49.639Z,1.00
2019-05-23T16:16:19.903Z,0.95
2019-05-23T16:18:50.376Z,0.82
2019-05-23T16:21:21.475Z,1.30
2019-05-23T16:23:51.664Z,1.05
2019-05-23T16:26:21.722Z,0.95
2019-05-23T16:28:52.405Z,0.80
2019-05-23T16:31:22.502Z,0.90
2019-05-23T16:33:52.581Z,0.90
2019-05-23T16:36:22.649Z,0.90
2019-05-23T16:38:52.724Z,0.80
2019-05-23T16:41:22.812Z,0.88
2019-05-23T16:43:53.075Z,1.00
2019-05-23T16:46:23.234Z,0.82
2019-05-23T16:48:54.137Z,1.35
2019-05-23T16:51:25.891Z,0.90
2019-05-23T16:53:56.684Z,1.02
2019-05-23T16:56:44.036Z,1.17
2019-05-23T16:59:18.448Z,0.95
2019-05-23T17:02:06.424Z,1.20
2019-05-23T17:04:43.999Z,0.95
2019-05-23T17:07:27.910Z,1.07
2019-05-23T17:10:08.872Z,1.20
2019-05-23T17:12:41.702Z,1.27
2019-05-23T17:15:25.677Z,1.30
2019-05-23T17:18:03.340Z,1.00
2019-05-23T17:20:40.145Z,0.85
2019-05-23T17:23:12.138Z,1.20
2019-05-23T17:25:43.874Z,1.32
2019-05-23T17:28:31.097Z,1.12
2019-05-23T17:31:05.831Z,1.00
2019-05-23T17:33:37.103Z,0.80
2019-05-23T17:36:07.413Z,1.15
2019-05-23T17:38:37.687Z,1.07
2019-05-23T17:41:08.046Z,1.27
2019-05-23T17:43:38.227Z,2.17
2019-05-23T17:46:10.981Z,1.50
2019-05-23T17:48:44.567Z,1.20
2019-05-23T17:51:15.688Z,1.10
2019-05-23T17:53:53.853Z,1.20
2019-05-23T17:56:25.124Z,1.10
2019-05-23T17:58:55.203Z,1.15
2019-05-23T18:01:27.099Z,2.45
2019-05-23T18:03:57.415Z,1.10
2019-05-23T18:06:27.556Z,1.15
2019-05-23T18:09:00.515Z,1.60
2019-05-23T18:11:30.977Z,1.30
2019-05-23T18:14:01.433Z,1.20
2019-05-23T18:16:31.863Z,1.05
2019-05-23T18:19:04.373Z,1.12
2019-05-23T18:21:35.106Z,1.10
2019-05-23T18:24:06.390Z,1.12
2019-05-23T18:26:36.736Z,1.22
2019-05-23T18:29:09.789Z,1.20
2019-05-23T18:31:41.777Z,1.20
2019-05-23T18:34:11.866Z,1.15
2019-05-23T18:36:42.759Z,1.10
2019-05-23T18:39:16.269Z,1.02
2019-05-23T18:41:46.438Z,1.50
2019-05-23T18:44:17.616Z,1.40
2019-05-23T18:46:55.327Z,1.40
2019-05-23T18:49:25.721Z,1.20
2019-05-23T18:51:59.058Z,1.40
2019-05-23T18:54:31.837Z,2.47
2019-05-23T18:57:02.284Z,2.35
2019-05-23T18:59:33.418Z,2.92
2019-05-23T19:02:03.669Z,2.25
2019-05-23T19:04:36.520Z,1.70
2019-05-23T19:07:11.554Z,1.65
2019-05-23T19:09:44.972Z,1.50
2019-05-23T19:12:15.614Z,2.52
2019-05-23T19:14:45.678Z,2.08
2019-05-23T19:17:15.981Z,2.00
2019-05-23T19:19:46.224Z,2.20
2019-05-23T19:22:16.700Z,2.45
2019-05-23T19:24:47.028Z,3.00
2019-05-23T19:27:17.764Z,2.40
2019-05-23T19:29:47.840Z,2.20
2019-05-23T19:32:18.416Z,2.17
2019-05-23T19:34:48.583Z,2.35
2019-05-23T19:37:18.774Z,1.92
2019-05-23T19:39:52.956Z,2.25
2019-05-23T19:42:23.510Z,1.90
2019-05-23T19:44:53.504Z,1.98
2019-05-23T19:47:28.801Z,2.05
2019-05-23T19:50:00.241Z,1.80
2019-05-23T19:52:30.620Z,2.00
2019-05-23T19:55:00.797Z,1.87
2019-05-23T19:57:32.138Z,2.30
2019-05-23T20:00:06.271Z,2.22
2019-05-23T20:02:45.425Z,2.65
2019-05-23T20:05:29.227Z,2.00
2019-05-23T20:07:59.945Z,2.50
2019-05-23T20:10:31.172Z,2.30
2019-05-23T20:13:01.648Z,2.85
2019-05-23T20:15:34.482Z,3.00
2019-05-23T20:18:06.744Z,3.70
2019-05-23T20:20:39.119Z,4.83
2019-05-23T20:23:11.161Z,5.12
2019-05-23T20:25:41.663Z,5.90
2019-05-23T20:28:13.303Z,5.30
2019-05-23T20:30:47.576Z,4.13
2019-05-23T20:33:17.970Z,4.00
2019-05-23T20:35:48.423Z,4.20
2019-05-23T20:38:20.111Z,3.80
2019-05-23T20:40:53.282Z,3.43
2019-05-23T20:43:23.521Z,3.53
2019-05-23T20:45:53.718Z,3.80
2019-05-23T20:48:27.626Z,3.20
2019-05-23T20:50:58.040Z,4.00
2019-05-23T20:53:28.203Z,3.23
2019-05-23T20:55:58.283Z,3.50
2019-05-23T20:58:28.372Z,4.10
2019-05-23T21:01:00.190Z,3.67
2019-05-23T21:03:35.323Z,3.77
2019-05-23T21:06:05.988Z,3.40
2019-05-23T21:08:39.752Z,4.03
2019-05-23T21:11:10.274Z,4.17
2019-05-23T21:13:40.469Z,4.23
2019-05-23T21:16:10.511Z,4.30
2019-05-23T21:18:40.735Z,4.10
2019-05-23T21:21:11.218Z,4.10
2019-05-23T21:23:41.316Z,4.40
2019-05-23T21:26:13.812Z,4.23
2019-05-23T21:28:46.831Z,3.90
2019-05-23T21:31:18.472Z,4.03
2019-05-23T21:33:48.773Z,3.43
2019-05-23T21:36:18.865Z,3.20
2019-05-23T21:38:49.054Z,3.70
2019-05-23T21:41:19.220Z,3.30
2019-05-23T21:43:50.872Z,3.90
2019-05-23T21:46:20.862Z,3.83
2019-05-23T21:48:51.238Z,3.77
2019-05-23T21:51:21.370Z,3.70
2019-05-23T21:53:51.461Z,3.50
2019-05-23T21:56:21.582Z,3.60
2019-05-23T21:58:51.765Z,3.60
2019-05-23T22:01:25.345Z,3.00
2019-05-23T22:03:57.286Z,3.40
2019-05-23T22:06:43.979Z,3.27
2019-05-23T22:09:14.282Z,2.93
2019-05-23T22:11:44.718Z,2.90
2019-05-23T22:14:15.807Z,2.80
2019-05-23T22:16:45.910Z,3.10
2019-05-23T22:19:17.813Z,2.73
2019-05-23T22:21:48.441Z,2.97
2019-05-23T22:24:19.764Z,2.83
2019-05-23T22:26:49.895Z,2.57
2019-05-23T22:29:20.048Z,2.77
2019-05-23T22:31:50.176Z,3.00
2019-05-23T22:34:22.070Z,2.60
2019-05-23T22:36:53.175Z,3.20
2019-05-23T22:39:24.513Z,2.83
2019-05-23T22:41:54.667Z,3.67
2019-05-23T22:44:24.677Z,3.37
2019-05-23T22:46:54.847Z,2.87
2019-05-23T22:49:24.837Z,3.50
2019-05-23T22:51:54.913Z,3.10
2019-05-23T22:54:24.971Z,3.23
2019-05-23T22:56:55.062Z,3.00
2019-05-23T22:59:25.092Z,2.93
2019-05-23T23:01:55.223Z,3.30
2019-05-23T23:04:25.696Z,3.10
2019-05-23T23:06:55.696Z,3.00
2019-05-23T23:09:28.783Z,3.10
2019-05-23T23:11:59.416Z,3.47
2019-05-23T23:14:29.778Z,3.37
2019-05-23T23:17:00.021Z,2.93
2019-05-23T23:19:30.117Z,3.23
2019-05-23T23:22:00.196Z,3.50
2019-05-23T23:24:30.218Z,3.10
2019-05-23T23:27:00.221Z,3.30
2019-05-23T23:29:30.297Z,3.23
2019-05-23T23:32:04.061Z,3.00
2019-05-23T23:34:34.356Z,3.40
2019-05-23T23:37:04.450Z,2.93
2019-05-23T23:39:34.600Z,3.60
2019-05-23T23:42:06.021Z,3.07
2019-05-23T23:44:35.340Z,3.53
2019-05-23T23:47:24.150Z,3.00
2019-05-23T23:50:12.012Z,2.60
2019-05-23T23:53:03.031Z,3.30
2019-05-23T23:55:50.852Z,3.00
2019-05-23T23:58:20.541Z,3.20
